Latest Weather Observations for Kalumburu

IDD60801

Issued at 7:31 am CST Monday 26 September 2016 (issued every 30 minutes, with the page automatically refreshed every 10 minutes)

About weather observations | Map of weather stations | Latest weather observations for NT | Other Formats
Station Details ID: 001019 Name: KALUMBURU Lat: -14.30 Lon: 126.65 Height: 23.0 m
Data from the previous 72 hours. | See also: Recent months at Kalumburu
Date/Time
CST
Temp
°C
App
Temp
°C
Dew
Point
°C
Rel
Hum
%
Delta-T
°C
Wind Press
QNH
hPa
Press
MSL
hPa
Rain since
9am
mm
Dir  Spd
km/h
Gust
km/h
Spd
kts
Gust
kts
26/07:30am 23.0 27.4 21.3 90 1.1 CALM 0 0 0 0 1009.6 1009.4 0.0
26/07:00am 22.5 26.6 20.8 90 1.1 CALM 0 0 0 0 1009.2 1009.0 0.0
26/06:30am 22.4 26.4 20.5 89 1.2 CALM 0 0 0 0 1008.8 1008.6 0.0
26/06:00am 22.5 26.1 20.6 89 1.2 S 2 6 1 3 1008.5 1008.3 0.0
26/05:30am 22.7 26.7 20.6 88 1.4 CALM 0 0 0 0 1008.3 1008.1 0.0
26/05:00am 23.2 27.5 21.1 88 1.4 CALM 0 0 0 0 1008.1 1007.9 0.0
26/04:30am 23.5 27.9 21.4 88 1.4 CALM 0 0 0 0 1008.1 1007.9 0.0
26/04:00am 23.6 28.0 21.3 87 1.5 CALM 0 0 0 0 1008.2 1008.0 0.0
26/03:30am 23.8 28.3 21.5 87 1.5 CALM 0 0 0 0 1008.2 1008.0 0.0
26/03:00am 24.1 28.5 21.4 85 1.8 CALM 0 0 0 0 1008.6 1008.4 0.0
26/02:30am 24.8 29.7 22.3 86 1.7 CALM 0 0 0 0 1008.9 1008.7 0.0
26/02:00am 25.0 29.1 21.5 81 2.3 NNE 2 6 1 3 1009.3 1009.1 0.0
26/01:30am 25.7 30.4 22.6 83 2.1 W 2 6 1 3 1009.6 1009.4 0.0
26/01:00am 25.0 29.7 21.9 83 2.1 CALM 0 0 0 0 1010.0 1009.8 0.0
26/12:30am 25.6 30.4 22.1 81 2.3 CALM 0 0 0 0 1010.2 1010.0 0.0
26/12:00am 26.4 31.3 22.3 78 2.8 CALM 0 0 0 0 1010.4 1010.2 0.0
 
Date/Time
CST
Temp
°C
App
Temp
°C
Dew
Point
°C
Rel
Hum
%
Delta-T
°C
Wind Press
QNH
hPa
Press
MSL
hPa
Rain since
9am
mm
Dir  Spd
km/h
Gust
km/h
Spd
kts
Gust
kts
25/11:30pm 26.8 31.5 22.0 75 3.2 CALM 0 0 0 0 1010.5 1010.3 0.0
25/11:00pm 27.7 31.2 22.2 72 3.7 NW 7 11 4 6 1010.5 1010.3 0.0
25/10:30pm 27.9 31.5 22.4 72 3.7 NW 7 9 4 5 1010.2 1010.0 0.0
25/10:00pm 28.1 31.6 22.1 70 4.0 NNW 7 11 4 6 1009.7 1009.5 0.0
25/09:30pm 28.5 31.4 21.0 64 5.0 NNW 7 11 4 6 1009.6 1009.4 0.0
25/09:00pm 29.0 31.3 20.7 61 5.5 NNW 9 11 5 6 1009.1 1008.9 0.0
25/08:30pm 29.5 31.5 19.2 54 6.7 NNW 7 11 4 6 1008.8 1008.6 0.0
25/08:00pm 30.2 30.7 18.3 49 7.7 NW 13 19 7 10 1008.3 1008.1 0.0
25/07:30pm 30.5 31.8 20.1 53 6.9 NW 13 20 7 11 1008.0 1007.8 0.0
25/07:00pm 31.3 32.5 20.6 53 7.1 NW 15 22 8 12 1007.6 1007.4 0.0
25/06:30pm 32.6 32.5 18.8 44 9.0 NW 17 32 9 17 1007.1 1006.9 0.0
25/06:00pm 34.2 33.4 16.1 34 11.4 NW 15 24 8 13 1006.6 1006.4 0.0
25/05:30pm 35.2 33.0 14.5 29 12.8 NW 19 32 10 17 1006.2 1006.0 0.0
25/05:00pm 36.4 33.8 13.2 25 14.2 WNW 19 28 10 15 1005.9 1005.7 0.0
25/04:30pm 35.7 34.7 19.6 39 10.7 N 24 35 13 19 1005.9 1005.7 0.0
25/04:00pm 35.7 34.5 20.0 39 10.5 NNW 26 33 14 18 1006.0 1005.8 0.0
25/03:30pm 35.7 34.7 19.6 39 10.7 NNW 24 32 13 17 1006.0 1005.8 0.0
25/03:00pm 36.5 34.4 17.1 31 12.5 N 24 33 13 18 1006.3 1006.1 0.0
25/02:30pm 37.2 35.9 17.2 30 13.0 N 20 30 11 16 1006.6 1006.4 0.0
25/02:00pm 37.9 36.8 17.8 30 13.1 NNW 20 28 11 15 1007.0 1006.8 0.0
25/01:30pm 37.2 36.7 17.7 31 12.7 NW 17 26 9 14 1007.5 1007.3 0.0
25/01:00pm 36.9 35.9 16.5 30 13.1 N 17 26 9 14 1008.0 1007.8 0.0
25/12:30pm 36.6 36.4 16.7 30 12.8 NNW 13 22 7 12 1008.6 1008.4 0.0
25/12:00pm 36.4 36.7 15.0 28 13.4 SW 7 17 4 9 1009.2 1009.0 0.0
25/11:30am 35.5 36.3 16.3 32 12.2 SSE 7 13 4 7 1009.8 1009.6 0.0
25/11:00am 34.3 35.2 17.5 36 10.8 W 9 13 5 7 1010.2 1010.0 0.0
25/10:30am 32.3 33.8 18.1 42 9.2 NW 7 13 4 7 1010.5 1010.3 0.0
25/10:00am 31.5 33.3 18.8 46 8.3 NNW 7 13 4 7 1010.8 1010.6 0.0
25/09:30am 30.5 32.8 19.5 51 7.2 W 6 11 3 6 1010.8 1010.6 0.0
25/09:00am 29.5 31.9 20.1 57 6.2 NNW 7 11 4 6 1010.8 1010.6 0.0
25/08:30am 28.9 31.8 20.6 61 5.5 NW 6 13 3 7 1010.6 1010.4 0.0
25/08:00am 27.5 30.4 21.1 68 4.2 WNW 7 11 4 6 1010.3 1010.1 0.0
25/07:30am 24.6 29.0 21.3 82 2.2 CALM 0 0 0 0 1009.8 1009.6 0.0
25/07:00am 23.5 27.3 20.2 82 2.1 CALM 0 0 0 0 1009.3 1009.1 0.0
25/06:30am 23.6 27.3 19.9 80 2.4 CALM 0 0 0 0 1008.9 1008.7 0.0
25/06:00am 23.9 27.5 19.8 78 2.6 CALM 0 0 0 0 1008.7 1008.5 0.0
25/05:30am 24.1 27.7 19.8 77 2.8 CALM 0 0 0 0 1008.4 1008.2 0.0
25/05:00am 24.5 28.5 20.6 79 2.5 CALM 0 0 0 0 1008.3 1008.1 0.0
25/04:30am 24.2 28.0 20.1 78 2.7 CALM 0 0 0 0 1008.4 1008.2 0.0
25/04:00am 24.1 27.7 19.8 77 2.8 CALM 0 0 0 0 1008.5 1008.3 0.0
25/03:30am 24.3 27.3 20.0 77 2.8 WSW 4 6 2 3 1008.6 1008.4 0.0
25/03:00am 23.8 27.4 19.7 78 2.6 CALM 0 0 0 0 1008.6 1008.4 0.0
25/02:30am 23.9 27.4 19.6 77 2.8 CALM 0 0 0 0 1008.8 1008.6 0.0
25/02:00am 24.4 26.9 19.9 76 2.9 NW 6 9 3 5 1008.7 1008.5 0.0
25/01:30am 25.9 28.7 20.5 72 3.5 NW 6 9 3 5 1009.1 1008.9 0.0
25/01:00am 24.9 27.6 20.2 75 3.1 NW 6 7 3 4 1009.3 1009.1 0.0
25/12:30am 24.9 27.2 19.5 72 3.5 WNW 6 7 3 4 1009.5 1009.3 0.0
25/12:00am 25.6 29.0 19.3 68 4.1 CALM 0 0 0 0 1009.6 1009.4 0.0
 
Date/Time
CST
Temp
°C
App
Temp
°C
Dew
Point
°C
Rel
Hum
%
Delta-T
°C
Wind Press
QNH
hPa
Press
MSL
hPa
Rain since
9am
mm
Dir  Spd
km/h
Gust
km/h
Spd
kts
Gust
kts
24/11:30pm 26.3 29.4 19.4 66 4.5 NW 2 7 1 4 1009.9 1009.7 0.0
24/11:00pm 27.3 29.6 19.4 62 5.1 N 6 11 3 6 1009.9 1009.7 0.0
24/10:30pm 27.5 29.6 19.0 59 5.5 NW 6 7 3 4 1009.9 1009.7 0.0
24/10:00pm 28.3 30.1 18.7 56 6.2 NW 7 9 4 5 1009.7 1009.5 0.0
24/09:30pm 29.0 30.3 18.4 52 6.8 WNW 9 15 5 8 1009.3 1009.1 0.0
24/09:00pm 29.1 30.4 17.6 50 7.3 NW 7 11 4 6 1008.9 1008.7 0.0
24/08:30pm 29.7 30.6 16.5 45 8.3 NW 7 13 4 7 1008.6 1008.4 0.0
24/08:00pm 30.5 30.0 15.8 41 9.1 NW 13 19 7 10 1008.1 1007.9 0.0
24/07:30pm 31.2 30.3 14.8 37 10.1 WNW 13 26 7 14 1007.6 1007.4 0.0
24/07:00pm 32.1 30.2 14.3 34 10.9 NW 17 24 9 13 1007.1 1006.9 0.0
24/06:30pm 33.3 31.5 14.4 32 11.6 NW 17 28 9 15 1006.6 1006.4 0.0
24/06:00pm 34.4 32.7 15.8 33 11.7 NNW 19 26 10 14 1006.0 1005.8 0.0
24/05:30pm 35.0 32.8 14.3 29 12.8 NNW 19 28 10 15 1005.7 1005.5 0.0
24/05:00pm 35.2 32.6 15.0 30 12.6 NNW 22 32 12 17 1005.6 1005.4 0.0
24/04:30pm 35.0 32.2 16.3 32 11.9 N 26 35 14 19 1005.6 1005.4 0.0
24/04:00pm 35.4 32.7 15.7 31 12.4 NNW 24 37 13 20 1005.8 1005.6 0.0
24/03:30pm 35.8 33.2 16.0 30 12.6 NNW 24 33 13 18 1006.0 1005.8 0.0
24/03:00pm 35.8 34.0 16.0 30 12.5 NNW 20 35 11 19 1006.2 1006.0 0.0
24/02:30pm 36.4 34.2 15.0 28 13.4 NW 20 30 11 16 1006.5 1006.3 0.0
24/02:00pm 36.7 34.2 14.1 26 14.0 NNW 20 30 11 16 1006.9 1006.7 0.0
24/01:30pm 36.8 35.2 12.9 24 14.6 NNW 13 22 7 12 1007.3 1007.1 0.0
24/01:00pm 35.8 34.4 10.8 22 14.7 SSW 9 15 5 8 1008.1 1007.9 0.0
24/12:30pm 37.2 36.7 12.6 23 14.9 NNE 7 17 4 9 1008.8 1008.6 0.0
24/12:00pm 35.3 33.7 11.7 24 14.0 SW 11 20 6 11 1009.5 1009.3 0.0
24/11:30am 34.7 33.7 12.4 26 13.4 SSW 9 19 5 10 1010.3 1010.1 0.0
24/11:00am 33.8 32.6 12.7 27 12.7 S 11 15 6 8 1010.8 1010.6 0.0
24/10:30am 32.9 32.3 13.5 30 11.7 S 9 17 5 9 1011.1 1010.9 0.0
24/10:00am 32.0 32.2 14.6 34 10.7 S 7 15 4 8 1011.4 1011.2 0.0
24/09:30am 30.9 32.3 17.9 45 8.3 SW 7 9 4 5 1011.6 1011.4 0.0
24/09:00am 29.6 31.0 17.8 49 7.5 WSW 7 11 4 6 1011.6 1011.4 0.0
24/08:30am 28.0 31.2 20.6 64 4.9 WSW 4 9 2 5 1011.5 1011.3 0.0
24/08:00am 26.3 31.0 22.6 80 2.5 S 2 6 1 3 1011.2 1011.0 0.0
24/07:30am 23.3 27.8 21.6 90 1.1 CALM 0 0 0 0 1011.0 1010.8 0.0
24/07:00am 22.9 27.1 21.0 89 1.2 CALM 0 0 0 0 1010.8 1010.6 0.0
24/06:30am 22.9 27.0 20.8 88 1.4 CALM 0 0 0 0 1010.4 1010.2 0.0
24/06:00am 23.1 27.4 21.2 89 1.2 CALM 0 0 0 0 1010.0 1009.8 0.0
24/05:30am 23.4 27.8 21.3 88 1.4 CALM 0 0 0 0 1009.5 1009.3 0.0
24/05:00am 23.6 28.1 21.5 88 1.4 CALM 0 0 0 0 1009.3 1009.1 0.0
24/04:30am 23.5 26.8 20.8 85 1.8 S 4 6 2 3 1009.2 1009.0 0.0
24/04:00am 24.0 28.4 21.3 85 1.8 CALM 0 0 0 0 1009.1 1008.9 0.0
24/03:30am 24.4 28.5 21.5 84 1.9 N 2 7 1 4 1009.0 1008.8 0.0
24/03:00am 24.7 28.4 21.4 82 2.2 NNW 4 6 2 3 1009.1 1008.9 0.0
24/02:30am 25.3 30.0 22.0 82 2.2 CALM 0 6 0 3 1009.1 1008.9 0.0
24/02:00am 25.1 29.5 21.4 80 2.4 CALM 0 0 0 0 1009.3 1009.1 0.0
24/01:30am 25.6 30.1 21.5 78 2.7 CALM 0 0 0 0 1009.7 1009.5 0.0
24/01:00am 26.4 30.6 21.8 76 3.1 W 2 6 1 3 1009.9 1009.7 0.0
24/12:30am 27.0 30.4 21.7 73 3.5 WNW 6 7 3 4 1010.0 1009.8 0.0
24/12:00am 27.4 31.0 22.1 73 3.6 NNW 6 11 3 6 1010.3 1010.1 0.0
 
Date/Time
CST
Temp
°C
App
Temp
°C
Dew
Point
°C
Rel
Hum
%
Delta-T
°C
Wind Press
QNH
hPa
Press
MSL
hPa
Rain since
9am
mm
Dir  Spd
km/h
Gust
km/h
Spd
kts
Gust
kts
23/11:30pm 27.7 30.8 22.2 72 3.7 NW 9 15 5 8 1010.3 1010.1 0.0
23/11:00pm 27.8 31.0 21.6 69 4.1 NNW 7 11 4 6 1010.4 1010.2 0.0
23/10:30pm 28.0 30.8 21.5 67 4.3 NNW 9 13 5 7 1010.1 1009.9 0.0
23/10:00pm 28.3 31.1 21.6 67 4.5 NNW 9 15 5 8 1010.0 1009.8 0.0
23/09:30pm 28.6 30.9 21.4 65 4.8 NW 11 15 6 8 1009.8 1009.6 0.0
23/09:00pm 28.8 30.8 21.6 65 4.8 NNW 13 19 7 10 1009.4 1009.2 0.0
23/08:30pm 29.1 31.0 21.3 62 5.2 NNW 13 22 7 12 1009.0 1008.8 0.0
23/08:00pm 29.5 31.0 21.2 61 5.5 NNW 15 24 8 13 1008.6 1008.4 0.0
23/07:30pm 29.8 30.9 21.2 60 5.8 N 17 26 9 14 1008.0 1007.8 0.0
23/07:00pm 30.7 31.6 20.9 56 6.5 NNW 17 26 9 14 1007.4 1007.2 0.0
23/06:30pm 32.0 32.6 20.3 50 7.8 NNW 17 26 9 14 1007.0 1006.8 0.0
23/06:00pm 32.8 32.6 19.7 46 8.7 NNW 20 32 11 17 1006.5 1006.3 0.0
23/05:30pm 33.3 31.9 19.7 44 9.0 N 26 39 14 21 1006.3 1006.1 0.0
23/05:00pm 34.1 32.3 17.8 38 10.5 N 24 35 13 19 1006.3 1006.1 0.0
23/04:30pm 35.0 32.9 18.1 36 11.0 NNW 26 41 14 22 1006.2 1006.0 0.0
23/04:00pm 35.6 34.1 17.8 35 11.6 NNW 22 37 12 20 1006.3 1006.1 0.0
23/03:30pm 35.9 34.5 18.0 34 11.7 NNW 22 32 12 17 1006.6 1006.4 0.0
23/03:00pm 36.7 35.8 17.8 32 12.3 NNW 19 26 10 14 1006.8 1006.6 0.0
23/02:30pm 36.2 35.0 17.4 33 12.2 NNW 20 30 11 16 1007.2 1007.0 0.0
23/02:00pm 35.8 34.8 16.5 31 12.3 NW 17 24 9 13 1007.7 1007.5 0.0
23/01:30pm 35.4 35.0 16.2 32 12.2 NW 13 22 7 12 1008.3 1008.1 0.0
23/01:00pm 36.1 36.1 15.2 28 13.1 WNW 9 13 5 7 1009.1 1008.9 0.0
23/12:30pm 35.2 35.5 15.0 30 12.6 N 7 19 4 10 1009.8 1009.6 0.0
23/12:00pm 35.8 36.3 16.5 31 12.3 NW 9 19 5 10 1010.3 1010.1 0.0
23/11:30am 34.7 35.8 16.5 33 11.6 WNW 6 13 3 7 1010.9 1010.7 0.0
23/11:00am 33.9 34.8 17.6 38 10.5 SW 9 13 5 7 1011.4 1011.2 0.0
23/10:30am 32.1 32.9 17.2 41 9.5 W 9 15 5 8 1011.9 1011.7 0.0
23/10:00am 32.4 33.3 17.5 41 9.5 WNW 9 15 5 8 1012.1 1011.9 0.0
23/09:30am 31.0 33.4 20.0 52 7.3 W 7 15 4 8 1012.3 1012.1 0.0

Other Formats:

Comma delimited format used in spreadsheet applications
http://www.bom.gov.au/fwo/IDD60801/IDD60801.94100.axf

JavaScript Object Notation format (JSON) in row-major order
http://www.bom.gov.au/fwo/IDD60801/IDD60801.94100.json